sensor_id;sensor_type;location;lat;lon;timestamp;P1;durP1;ratioP1;P2;durP2;ratioP2
12222;SDS011;6174;49.058;8.524;2023-02-23T05:02:26;22.73;;;17.60;;
12222;SDS011;6174;49.058;8.524;2023-02-23T05:04:53;21.73;;;18.33;;
12222;SDS011;6174;49.058;8.524;2023-02-23T05:07:20;22.07;;;17.70;;
12222;SDS011;6174;49.058;8.524;2023-02-23T05:09:47;22.97;;;17.77;;
12222;SDS011;6174;49.058;8.524;2023-02-23T05:12:13;19.87;;;17.53;;
12222;SDS011;6174;49.058;8.524;2023-02-23T05:14:40;20.47;;;18.10;;
12222;SDS011;6174;49.058;8.524;2023-02-23T05:17:07;21.47;;;17.63;;
12222;SDS011;6174;49.058;8.524;2023-02-23T05:19:35;21.83;;;18.10;;
12222;SDS011;6174;49.058;8.524;2023-02-23T05:22:02;20.57;;;17.83;;
12222;SDS011;6174;49.058;8.524;2023-02-23T05:24:29;21.70;;;18.17;;
12222;SDS011;6174;49.058;8.524;2023-02-23T05:26:56;22.20;;;17.87;;
12222;SDS011;6174;49.058;8.524;2023-02-23T05:29:23;20.67;;;18.30;;
12222;SDS011;6174;49.058;8.524;2023-02-23T05:31:49;21.73;;;18.63;;
12222;SDS011;6174;49.058;8.524;2023-02-23T05:34:16;21.10;;;18.83;;
12222;SDS011;6174;49.058;8.524;2023-02-23T05:36:44;21.57;;;19.27;;
12222;SDS011;6174;49.058;8.524;2023-02-23T05:39:11;21.50;;;17.47;;
12222;SDS011;6174;49.058;8.524;2023-02-23T05:41:38;22.40;;;18.13;;
12222;SDS011;6174;49.058;8.524;2023-02-23T05:44:05;23.63;;;19.37;;
12222;SDS011;6174;49.058;8.524;2023-02-23T05:46:32;23.00;;;19.07;;
12222;SDS011;6174;49.058;8.524;2023-02-23T05:48:59;21.80;;;19.40;;
12222;SDS011;6174;49.058;8.524;2023-02-23T05:51:27;24.83;;;20.57;;
12222;SDS011;6174;49.058;8.524;2023-02-23T05:53:56;24.97;;;20.90;;
12222;SDS011;6174;49.058;8.524;2023-02-23T05:56:23;22.40;;;19.03;;
12222;SDS011;6174;49.058;8.524;2023-02-23T05:58:51;25.20;;;20.27;;
12222;SDS011;6174;49.058;8.524;2023-02-23T06:01:20;21.67;;;19.30;;
12222;SDS011;6174;49.058;8.524;2023-02-23T06:03:47;21.03;;;17.53;;
12222;SDS011;6174;49.058;8.524;2023-02-23T06:06:15;21.37;;;18.17;;
12222;SDS011;6174;49.058;8.524;2023-02-23T06:08:42;20.80;;;18.33;;
12222;SDS011;6174;49.058;8.524;2023-02-23T06:11:11;19.57;;;17.47;;
12222;SDS011;6174;49.058;8.524;2023-02-23T06:13:38;21.90;;;17.83;;
12222;SDS011;6174;49.058;8.524;2023-02-23T06:16:05;21.27;;;17.80;;
12222;SDS011;6174;49.058;8.524;2023-02-23T06:18:33;19.87;;;17.77;;
12222;SDS011;6174;49.058;8.524;2023-02-23T06:21:00;19.30;;;17.20;;
12222;SDS011;6174;49.058;8.524;2023-02-23T06:23:28;20.83;;;17.43;;
12222;SDS011;6174;49.058;8.524;2023-02-23T06:25:55;21.57;;;17.37;;
12222;SDS011;6174;49.058;8.524;2023-02-23T06:28:25;24.27;;;18.10;;
12222;SDS011;6174;49.058;8.524;2023-02-23T06:30:52;20.63;;;17.47;;
12222;SDS011;6174;49.058;8.524;2023-02-23T06:33:19;21.87;;;18.43;;
12222;SDS011;6174;49.058;8.524;2023-02-23T06:35:47;20.20;;;18.07;;
12222;SDS011;6174;49.058;8.524;2023-02-23T06:38:14;20.03;;;17.93;;
12222;SDS011;6174;49.058;8.524;2023-02-23T06:40:40;25.17;;;18.50;;
12222;SDS011;6174;49.058;8.524;2023-02-23T06:43:08;22.67;;;18.30;;
12222;SDS011;6174;49.058;8.524;2023-02-23T06:45:36;22.87;;;19.10;;
12222;SDS011;6174;49.058;8.524;2023-02-23T06:48:05;20.43;;;18.03;;
12222;SDS011;6174;49.058;8.524;2023-02-23T06:50:32;21.60;;;18.60;;
12222;SDS011;6174;49.058;8.524;2023-02-23T06:52:59;20.70;;;17.67;;
12222;SDS011;6174;49.058;8.524;2023-02-23T06:55:26;21.43;;;17.77;;
12222;SDS011;6174;49.058;8.524;2023-02-23T06:57:53;20.70;;;17.67;;
12222;SDS011;6174;49.058;8.524;2023-02-23T07:00:20;20.83;;;18.63;;
12222;SDS011;6174;49.058;8.524;2023-02-23T07:02:49;19.73;;;17.63;;
12222;SDS011;6174;49.058;8.524;2023-02-23T07:05:15;20.63;;;18.37;;
12222;SDS011;6174;49.058;8.524;2023-02-23T07:07:42;19.93;;;17.77;;
12222;SDS011;6174;49.058;8.524;2023-02-23T07:10:10;21.60;;;18.27;;
12222;SDS011;6174;49.058;8.524;2023-02-23T07:12:37;23.97;;;21.50;;
12222;SDS011;6174;49.058;8.524;2023-02-23T07:15:04;22.83;;;19.20;;
12222;SDS011;6174;49.058;8.524;2023-02-23T07:17:31;21.57;;;18.73;;
12222;SDS011;6174;49.058;8.524;2023-02-23T07:20:00;21.70;;;18.20;;
12222;SDS011;6174;49.058;8.524;2023-02-23T07:22:26;23.63;;;19.17;;
12222;SDS011;6174;49.058;8.524;2023-02-23T07:24:54;21.90;;;19.53;;
12222;SDS011;6174;49.058;8.524;2023-02-23T07:27:21;22.03;;;18.27;;
12222;SDS011;6174;49.058;8.524;2023-02-23T07:29:48;19.27;;;17.27;;
12222;SDS011;6174;49.058;8.524;2023-02-23T07:32:15;20.07;;;17.97;;
12222;SDS011;6174;49.058;8.524;2023-02-23T07:34:42;29.20;;;23.30;;
12222;SDS011;6174;49.058;8.524;2023-02-23T07:37:11;38.50;;;26.97;;
12222;SDS011;6174;49.058;8.524;2023-02-23T07:39:38;35.10;;;26.90;;
12222;SDS011;6174;49.058;8.524;2023-02-23T07:42:04;22.77;;;19.17;;
12222;SDS011;6174;49.058;8.524;2023-02-23T07:44:31;19.63;;;17.63;;
12222;SDS011;6174;49.058;8.524;2023-02-23T07:46:58;19.77;;;17.63;;
12222;SDS011;6174;49.058;8.524;2023-02-23T07:49:25;20.37;;;17.80;;
12222;SDS011;6174;49.058;8.524;2023-02-23T07:51:52;20.13;;;17.30;;
12222;SDS011;6174;49.058;8.524;2023-02-23T07:54:20;18.17;;;16.27;;
12222;SDS011;6174;49.058;8.524;2023-02-23T07:56:47;20.50;;;16.43;;
12222;SDS011;6174;49.058;8.524;2023-02-23T07:59:14;20.70;;;16.00;;
12222;SDS011;6174;49.058;8.524;2023-02-23T08:01:41;19.37;;;15.43;;
12222;SDS011;6174;49.058;8.524;2023-02-23T08:04:09;18.80;;;16.07;;
12222;SDS011;6174;49.058;8.524;2023-02-23T08:06:35;16.77;;;15.07;;
12222;SDS011;6174;49.058;8.524;2023-02-23T08:09:03;17.00;;;15.20;;
12222;SDS011;6174;49.058;8.524;2023-02-23T08:11:31;19.93;;;15.60;;
12222;SDS011;6174;49.058;8.524;2023-02-23T08:13:58;18.10;;;15.33;;
12222;SDS011;6174;49.058;8.524;2023-02-23T08:16:25;17.67;;;15.33;;
12222;SDS011;6174;49.058;8.524;2023-02-23T08:18:52;17.50;;;14.80;;
12222;SDS011;6174;49.058;8.524;2023-02-23T08:21:19;17.87;;;16.03;;
12222;SDS011;6174;49.058;8.524;2023-02-23T08:23:46;16.17;;;14.43;;
12222;SDS011;6174;49.058;8.524;2023-02-23T08:26:13;16.07;;;14.47;;
12222;SDS011;6174;49.058;8.524;2023-02-23T08:28:41;17.00;;;15.20;;
12222;SDS011;6174;49.058;8.524;2023-02-23T08:31:10;16.47;;;14.77;;
12222;SDS011;6174;49.058;8.524;2023-02-23T08:33:37;17.97;;;15.03;;
12222;SDS011;6174;49.058;8.524;2023-02-23T08:36:04;16.93;;;14.67;;
12222;SDS011;6174;49.058;8.524;2023-02-23T08:38:32;16.17;;;14.33;;
12222;SDS011;6174;49.058;8.524;2023-02-23T08:41:07;17.77;;;15.27;;
12222;SDS011;6174;49.058;8.524;2023-02-23T08:43:33;17.97;;;15.33;;
12222;SDS011;6174;49.058;8.524;2023-02-23T08:46:02;17.63;;;15.60;;
12222;SDS011;6174;49.058;8.524;2023-02-23T08:48:30;17.10;;;15.30;;
12222;SDS011;6174;49.058;8.524;2023-02-23T08:50:57;16.40;;;14.37;;
12222;SDS011;6174;49.058;8.524;2023-02-23T08:53:25;17.37;;;15.50;;
12222;SDS011;6174;49.058;8.524;2023-02-23T08:55:54;17.80;;;14.43;;
12222;SDS011;6174;49.058;8.524;2023-02-23T08:58:24;17.20;;;15.47;;
12222;SDS011;6174;49.058;8.524;2023-02-23T09:00:51;18.37;;;15.03;;
12222;SDS011;6174;49.058;8.524;2023-02-23T09:03:20;16.67;;;14.57;;
12222;SDS011;6174;49.058;8.524;2023-02-23T09:05:47;18.07;;;15.90;;
12222;SDS011;6174;49.058;8.524;2023-02-23T09:08:14;17.30;;;15.50;;
12222;SDS011;6174;49.058;8.524;2023-02-23T09:10:41;16.47;;;14.37;;
12222;SDS011;6174;49.058;8.524;2023-02-23T09:13:08;15.43;;;13.80;;
12222;SDS011;6174;49.058;8.524;2023-02-23T09:15:36;15.83;;;13.10;;
12222;SDS011;6174;49.058;8.524;2023-02-23T09:18:04;14.47;;;12.97;;
12222;SDS011;6174;49.058;8.524;2023-02-23T09:20:33;14.27;;;12.40;;
12222;SDS011;6174;49.058;8.524;2023-02-23T09:22:59;14.37;;;12.80;;
12222;SDS011;6174;49.058;8.524;2023-02-23T09:25:26;13.33;;;11.93;;
12222;SDS011;6174;49.058;8.524;2023-02-23T09:27:55;13.00;;;11.67;;
12222;SDS011;6174;49.058;8.524;2023-02-23T09:30:24;11.77;;;10.37;;
12222;SDS011;6174;49.058;8.524;2023-02-23T09:32:52;12.53;;;11.10;;
12222;SDS011;6174;49.058;8.524;2023-02-23T09:35:22;12.43;;;10.80;;
12222;SDS011;6174;49.058;8.524;2023-02-23T09:37:51;11.90;;;10.67;;
12222;SDS011;6174;49.058;8.524;2023-02-23T09:40:21;12.07;;;10.10;;
12222;SDS011;6174;49.058;8.524;2023-02-23T09:42:52;12.00;;;10.73;;
12222;SDS011;6174;49.058;8.524;2023-02-23T09:45:28;11.43;;;10.27;;
12222;SDS011;6174;49.058;8.524;2023-02-23T09:48:09;11.33;;;10.17;;
12222;SDS011;6174;49.058;8.524;2023-02-23T09:50:41;11.07;;;9.83;;
12222;SDS011;6174;49.058;8.524;2023-02-23T09:53:15;10.70;;;9.63;;
12222;SDS011;6174;49.058;8.524;2023-02-23T09:55:56;12.60;;;10.13;;
12222;SDS011;6174;49.058;8.524;2023-02-23T09:58:25;12.33;;;9.17;;
12222;SDS011;6174;49.058;8.524;2023-02-23T10:00:59;10.83;;;9.73;;
12222;SDS011;6174;49.058;8.524;2023-02-23T10:03:53;10.30;;;9.20;;
12222;SDS011;6174;49.058;8.524;2023-02-23T10:06:24;11.40;;;9.20;;
12222;SDS011;6174;49.058;8.524;2023-02-23T10:08:59;12.37;;;10.70;;
12222;SDS011;6174;49.058;8.524;2023-02-23T10:11:34;11.27;;;10.17;;
12222;SDS011;6174;49.058;8.524;2023-02-23T10:14:12;14.50;;;10.07;;
12222;SDS011;6174;49.058;8.524;2023-02-23T10:16:51;13.03;;;10.73;;
12222;SDS011;6174;49.058;8.524;2023-02-23T10:19:30;12.47;;;10.93;;
12222;SDS011;6174;49.058;8.524;2023-02-23T10:22:02;11.13;;;9.97;;
12222;SDS011;6174;49.058;8.524;2023-02-23T10:24:34;12.23;;;9.50;;
12222;SDS011;6174;49.058;8.524;2023-02-23T10:27:04;12.77;;;11.00;;
12222;SDS011;6174;49.058;8.524;2023-02-23T10:29:36;11.37;;;9.97;;
12222;SDS011;6174;49.058;8.524;2023-02-23T10:32:11;11.40;;;9.63;;
12222;SDS011;6174;49.058;8.524;2023-02-23T10:34:43;12.43;;;9.57;;
12222;SDS011;6174;49.058;8.524;2023-02-23T10:37:12;13.13;;;9.80;;
12222;SDS011;6174;49.058;8.524;2023-02-23T10:39:43;12.47;;;10.03;;
12222;SDS011;6174;49.058;8.524;2023-02-23T10:42:11;10.90;;;8.87;;
12222;SDS011;6174;49.058;8.524;2023-02-23T10:44:42;13.60;;;8.77;;
12222;SDS011;6174;49.058;8.524;2023-02-23T10:47:11;12.33;;;9.23;;
12222;SDS011;6174;49.058;8.524;2023-02-23T10:49:42;11.57;;;8.53;;
12222;SDS011;6174;49.058;8.524;2023-02-23T10:52:10;9.83;;;8.80;;
12222;SDS011;6174;49.058;8.524;2023-02-23T10:54:40;12.00;;;8.97;;
12222;SDS011;6174;49.058;8.524;2023-02-23T10:57:11;12.40;;;9.23;;
12222;SDS011;6174;49.058;8.524;2023-02-23T10:59:57;10.57;;;8.80;;
12222;SDS011;6174;49.058;8.524;2023-02-23T11:02:39;10.43;;;7.83;;
12222;SDS011;6174;49.058;8.524;2023-02-23T11:05:12;11.33;;;8.43;;
12222;SDS011;6174;49.058;8.524;2023-02-23T11:08:07;9.37;;;8.37;;
12222;SDS011;6174;49.058;8.524;2023-02-23T11:10:55;11.93;;;9.60;;
12222;SDS011;6174;49.058;8.524;2023-02-23T11:13:27;10.27;;;9.17;;
12222;SDS011;6174;49.058;8.524;2023-02-23T11:15:59;10.33;;;8.70;;
12222;SDS011;6174;49.058;8.524;2023-02-23T11:18:28;11.63;;;9.87;;
12222;SDS011;6174;49.058;8.524;2023-02-23T11:20:56;12.47;;;9.93;;
12222;SDS011;6174;49.058;8.524;2023-02-23T11:23:24;12.60;;;9.27;;
12222;SDS011;6174;49.058;8.524;2023-02-23T11:25:57;13.73;;;9.77;;
12222;SDS011;6174;49.058;8.524;2023-02-23T11:28:26;10.60;;;8.93;;
12222;SDS011;6174;49.058;8.524;2023-02-23T11:30:56;12.63;;;9.50;;
12222;SDS011;6174;49.058;8.524;2023-02-23T11:33:28;10.87;;;9.77;;
12222;SDS011;6174;49.058;8.524;2023-02-23T11:36:11;12.07;;;9.17;;
12222;SDS011;6174;49.058;8.524;2023-02-23T11:38:40;11.47;;;10.13;;
12222;SDS011;6174;49.058;8.524;2023-02-23T11:41:17;13.63;;;10.40;;
12222;SDS011;6174;49.058;8.524;2023-02-23T11:43:47;13.50;;;10.47;;
12222;SDS011;6174;49.058;8.524;2023-02-23T11:46:15;10.70;;;9.20;;
12222;SDS011;6174;49.058;8.524;2023-02-23T11:48:46;11.27;;;9.40;;
12222;SDS011;6174;49.058;8.524;2023-02-23T11:51:21;12.33;;;9.60;;
12222;SDS011;6174;49.058;8.524;2023-02-23T11:53:52;11.40;;;9.37;;
12222;SDS011;6174;49.058;8.524;2023-02-23T11:56:22;9.63;;;8.63;;
12222;SDS011;6174;49.058;8.524;2023-02-23T11:58:52;10.70;;;9.17;;
12222;SDS011;6174;49.058;8.524;2023-02-23T12:01:21;13.07;;;9.10;;
12222;SDS011;6174;49.058;8.524;2023-02-23T12:03:59;11.37;;;9.33;;
12222;SDS011;6174;49.058;8.524;2023-02-23T12:06:29;9.83;;;8.50;;
12222;SDS011;6174;49.058;8.524;2023-02-23T12:08:58;11.47;;;8.47;;
12222;SDS011;6174;49.058;8.524;2023-02-23T12:11:32;9.60;;;8.50;;
12222;SDS011;6174;49.058;8.524;2023-02-23T12:14:04;11.20;;;8.50;;
12222;SDS011;6174;49.058;8.524;2023-02-23T12:16:37;11.10;;;9.03;;
12222;SDS011;6174;49.058;8.524;2023-02-23T12:19:10;12.07;;;8.70;;
12222;SDS011;6174;49.058;8.524;2023-02-23T12:21:49;11.40;;;8.37;;
12222;SDS011;6174;49.058;8.524;2023-02-23T12:24:24;12.20;;;8.50;;
12222;SDS011;6174;49.058;8.524;2023-02-23T12:26:59;14.47;;;9.00;;
12222;SDS011;6174;49.058;8.524;2023-02-23T12:29:30;12.50;;;9.80;;
12222;SDS011;6174;49.058;8.524;2023-02-23T12:32:03;10.20;;;8.90;;
12222;SDS011;6174;49.058;8.524;2023-02-23T12:34:38;12.53;;;9.37;;
12222;SDS011;6174;49.058;8.524;2023-02-23T12:37:14;10.07;;;8.57;;
12222;SDS011;6174;49.058;8.524;2023-02-23T12:39:53;9.47;;;8.47;;
12222;SDS011;6174;49.058;8.524;2023-02-23T12:42:28;12.30;;;8.87;;
12222;SDS011;6174;49.058;8.524;2023-02-23T12:45:03;11.77;;;8.90;;
12222;SDS011;6174;49.058;8.524;2023-02-23T12:47:32;10.30;;;9.20;;
12222;SDS011;6174;49.058;8.524;2023-02-23T12:50:03;9.87;;;8.47;;
12222;SDS011;6174;49.058;8.524;2023-02-23T12:52:38;8.80;;;7.70;;
12222;SDS011;6174;49.058;8.524;2023-02-23T12:55:09;8.67;;;7.70;;
12222;SDS011;6174;49.058;8.524;2023-02-23T12:57:41;10.20;;;8.10;;
12222;SDS011;6174;49.058;8.524;2023-02-23T13:03:06;8.87;;;7.97;;
12222;SDS011;6174;49.058;8.524;2023-02-23T13:05:50;9.97;;;7.80;;
12222;SDS011;6174;49.058;8.524;2023-02-23T13:08:28;9.63;;;7.70;;
12222;SDS011;6174;49.058;8.524;2023-02-23T13:11:09;8.13;;;7.33;;
12222;SDS011;6174;49.058;8.524;2023-02-23T13:13:43;9.90;;;7.87;;
12222;SDS011;6174;49.058;8.524;2023-02-23T13:16:14;8.80;;;7.00;;
12222;SDS011;6174;49.058;8.524;2023-02-23T13:18:58;9.80;;;7.57;;
12222;SDS011;6174;49.058;8.524;2023-02-23T13:21:32;8.73;;;7.10;;
12222;SDS011;6174;49.058;8.524;2023-02-23T13:24:03;7.77;;;6.67;;
12222;SDS011;6174;49.058;8.524;2023-02-23T13:26:35;7.80;;;6.33;;
12222;SDS011;6174;49.058;8.524;2023-02-23T13:29:11;7.63;;;6.33;;
12222;SDS011;6174;49.058;8.524;2023-02-23T13:31:49;7.23;;;6.37;;
12222;SDS011;6174;49.058;8.524;2023-02-23T13:34:19;6.40;;;5.80;;
12222;SDS011;6174;49.058;8.524;2023-02-23T13:36:51;7.87;;;5.60;;
12222;SDS011;6174;49.058;8.524;2023-02-23T13:39:25;5.97;;;5.37;;
12222;SDS011;6174;49.058;8.524;2023-02-23T13:42:09;8.00;;;6.33;;
12222;SDS011;6174;49.058;8.524;2023-02-23T13:44:45;9.77;;;7.23;;
12222;SDS011;6174;49.058;8.524;2023-02-23T13:47:20;8.83;;;6.43;;
12222;SDS011;6174;49.058;8.524;2023-02-23T13:50:00;9.17;;;7.70;;
12222;SDS011;6174;49.058;8.524;2023-02-23T13:52:36;9.87;;;6.97;;
12222;SDS011;6174;49.058;8.524;2023-02-23T13:55:17;7.27;;;6.40;;
12222;SDS011;6174;49.058;8.524;2023-02-23T13:58:14;8.50;;;6.33;;
12222;SDS011;6174;49.058;8.524;2023-02-23T14:00:44;9.90;;;7.97;;
12222;SDS011;6174;49.058;8.524;2023-02-23T14:03:28;9.63;;;7.97;;
12222;SDS011;6174;49.058;8.524;2023-02-23T14:05:59;8.97;;;6.83;;
12222;SDS011;6174;49.058;8.524;2023-02-23T14:08:27;9.70;;;7.10;;
12222;SDS011;6174;49.058;8.524;2023-02-23T14:10:59;9.13;;;7.20;;
12222;SDS011;6174;49.058;8.524;2023-02-23T14:13:33;10.00;;;7.27;;
12222;SDS011;6174;49.058;8.524;2023-02-23T14:16:09;8.70;;;7.17;;
12222;SDS011;6174;49.058;8.524;2023-02-23T14:18:50;7.93;;;6.13;;
12222;SDS011;6174;49.058;8.524;2023-02-23T14:21:24;8.57;;;7.00;;
12222;SDS011;6174;49.058;8.524;2023-02-23T14:24:01;7.47;;;6.60;;
12222;SDS011;6174;49.058;8.524;2023-02-23T14:26:35;12.17;;;7.10;;
12222;SDS011;6174;49.058;8.524;2023-02-23T14:29:24;10.57;;;7.37;;
12222;SDS011;6174;49.058;8.524;2023-02-23T14:31:58;7.63;;;6.83;;
12222;SDS011;6174;49.058;8.524;2023-02-23T14:34:44;10.27;;;7.23;;
12222;SDS011;6174;49.058;8.524;2023-02-23T14:37:15;10.73;;;7.23;;
12222;SDS011;6174;49.058;8.524;2023-02-23T14:39:47;10.90;;;7.67;;
12222;SDS011;6174;49.058;8.524;2023-02-23T14:42:18;9.70;;;7.77;;
12222;SDS011;6174;49.058;8.524;2023-02-23T14:44:48;9.47;;;7.43;;
12222;SDS011;6174;49.058;8.524;2023-02-23T14:47:19;8.90;;;7.90;;
12222;SDS011;6174;49.058;8.524;2023-02-23T14:49:48;10.57;;;7.73;;
12222;SDS011;6174;49.058;8.524;2023-02-23T14:52:19;9.53;;;7.47;;
12222;SDS011;6174;49.058;8.524;2023-02-23T14:54:48;9.53;;;7.63;;
12222;SDS011;6174;49.058;8.524;2023-02-23T14:57:16;8.67;;;7.80;;
12222;SDS011;6174;49.058;8.524;2023-02-23T14:59:50;8.97;;;7.67;;
12222;SDS011;6174;49.058;8.524;2023-02-23T15:02:21;10.03;;;7.33;;
12222;SDS011;6174;49.058;8.524;2023-02-23T15:04:49;9.80;;;7.60;;
12222;SDS011;6174;49.058;8.524;2023-02-23T15:07:17;8.50;;;7.40;;
12222;SDS011;6174;49.058;8.524;2023-02-23T15:09:50;10.83;;;7.30;;
12222;SDS011;6174;49.058;8.524;2023-02-23T15:12:18;9.70;;;6.93;;
12222;SDS011;6174;49.058;8.524;2023-02-23T15:14:50;7.43;;;6.67;;
12222;SDS011;6174;49.058;8.524;2023-02-23T15:17:22;7.83;;;6.70;;
12222;SDS011;6174;49.058;8.524;2023-02-23T15:19:52;12.07;;;7.00;;
12222;SDS011;6174;49.058;8.524;2023-02-23T15:22:23;7.30;;;6.40;;
12222;SDS011;6174;49.058;8.524;2023-02-23T15:24:54;9.53;;;7.10;;
12222;SDS011;6174;49.058;8.524;2023-02-23T15:27:27;11.60;;;7.00;;
12222;SDS011;6174;49.058;8.524;2023-02-23T15:29:55;8.83;;;6.83;;
12222;SDS011;6174;49.058;8.524;2023-02-23T15:32:24;11.60;;;7.60;;
12222;SDS011;6174;49.058;8.524;2023-02-23T15:34:51;8.67;;;7.17;;
12222;SDS011;6174;49.058;8.524;2023-02-23T15:37:22;8.23;;;6.93;;
12222;SDS011;6174;49.058;8.524;2023-02-23T15:39:55;8.57;;;7.40;;
12222;SDS011;6174;49.058;8.524;2023-02-23T15:42:25;8.73;;;7.77;;
12222;SDS011;6174;49.058;8.524;2023-02-23T15:44:58;9.40;;;7.63;;
12222;SDS011;6174;49.058;8.524;2023-02-23T15:47:30;10.63;;;8.50;;
12222;SDS011;6174;49.058;8.524;2023-02-23T15:50:03;9.27;;;7.00;;
12222;SDS011;6174;49.058;8.524;2023-02-23T15:52:33;9.73;;;6.90;;
12222;SDS011;6174;49.058;8.524;2023-02-23T15:55:08;8.37;;;6.03;;
12222;SDS011;6174;49.058;8.524;2023-02-23T15:57:43;6.53;;;4.60;;
12222;SDS011;6174;49.058;8.524;2023-02-23T16:00:15;5.70;;;4.77;;
12222;SDS011;6174;49.058;8.524;2023-02-23T16:02:58;7.33;;;3.97;;
12222;SDS011;6174;49.058;8.524;2023-02-23T16:05:26;6.23;;;4.20;;
12222;SDS011;6174;49.058;8.524;2023-02-23T16:08:01;6.17;;;4.23;;
12222;SDS011;6174;49.058;8.524;2023-02-23T16:10:31;4.50;;;4.10;;
12222;SDS011;6174;49.058;8.524;2023-02-23T16:13:10;4.83;;;3.40;;
12222;SDS011;6174;49.058;8.524;2023-02-23T16:15:39;5.17;;;3.90;;
12222;SDS011;6174;49.058;8.524;2023-02-23T16:18:10;5.57;;;3.77;;
12222;SDS011;6174;49.058;8.524;2023-02-23T16:20:41;6.20;;;3.73;;
12222;SDS011;6174;49.058;8.524;2023-02-23T16:23:12;5.03;;;3.70;;
12222;SDS011;6174;49.058;8.524;2023-02-23T16:25:46;5.03;;;3.33;;
12222;SDS011;6174;49.058;8.524;2023-02-23T16:28:19;5.43;;;3.70;;
12222;SDS011;6174;49.058;8.524;2023-02-23T16:30:49;5.07;;;3.43;;
12222;SDS011;6174;49.058;8.524;2023-02-23T16:33:24;5.87;;;3.60;;
12222;SDS011;6174;49.058;8.524;2023-02-23T16:36:03;4.63;;;3.37;;
12222;SDS011;6174;49.058;8.524;2023-02-23T16:38:37;5.73;;;3.50;;
12222;SDS011;6174;49.058;8.524;2023-02-23T16:41:09;5.60;;;3.70;;
12222;SDS011;6174;49.058;8.524;2023-02-23T16:43:41;6.67;;;4.50;;
12222;SDS011;6174;49.058;8.524;2023-02-23T16:46:08;4.93;;;3.80;;
12222;SDS011;6174;49.058;8.524;2023-02-23T16:48:37;6.23;;;4.00;;
12222;SDS011;6174;49.058;8.524;2023-02-23T16:51:07;5.77;;;3.90;;
12222;SDS011;6174;49.058;8.524;2023-02-23T16:53:38;6.87;;;4.60;;
12222;SDS011;6174;49.058;8.524;2023-02-23T16:56:05;6.50;;;4.43;;
12222;SDS011;6174;49.058;8.524;2023-02-23T16:58:36;6.50;;;4.80;;
12222;SDS011;6174;49.058;8.524;2023-02-23T17:01:04;6.73;;;4.70;;
12222;SDS011;6174;49.058;8.524;2023-02-23T17:03:31;7.63;;;5.53;;
12222;SDS011;6174;49.058;8.524;2023-02-23T17:05:59;6.53;;;4.67;;
12222;SDS011;6174;49.058;8.524;2023-02-23T17:08:27;5.83;;;4.73;;
12222;SDS011;6174;49.058;8.524;2023-02-23T17:10:54;7.60;;;5.27;;
12222;SDS011;6174;49.058;8.524;2023-02-23T17:13:22;6.30;;;4.67;;
12222;SDS011;6174;49.058;8.524;2023-02-23T17:15:51;5.20;;;4.60;;
12222;SDS011;6174;49.058;8.524;2023-02-23T17:18:20;6.67;;;4.33;;
12222;SDS011;6174;49.058;8.524;2023-02-23T17:20:48;5.10;;;4.60;;
12222;SDS011;6174;49.058;8.524;2023-02-23T17:23:17;6.60;;;4.40;;
12222;SDS011;6174;49.058;8.524;2023-02-23T17:25:45;6.67;;;4.90;;
12222;SDS011;6174;49.058;8.524;2023-02-23T17:28:11;6.10;;;5.20;;
12222;SDS011;6174;49.058;8.524;2023-02-23T17:30:38;5.37;;;4.87;;
12222;SDS011;6174;49.058;8.524;2023-02-23T17:33:07;8.13;;;6.60;;
12222;SDS011;6174;49.058;8.524;2023-02-23T17:35:34;9.87;;;7.70;;
12222;SDS011;6174;49.058;8.524;2023-02-23T17:38:01;9.60;;;7.73;;
12222;SDS011;6174;49.058;8.524;2023-02-23T17:40:29;9.17;;;6.87;;
12222;SDS011;6174;49.058;8.524;2023-02-23T17:43:01;7.40;;;4.63;;
12222;SDS011;6174;49.058;8.524;2023-02-23T17:45:30;6.70;;;3.90;;
12222;SDS011;6174;49.058;8.524;2023-02-23T17:47:57;5.03;;;3.83;;
12222;SDS011;6174;49.058;8.524;2023-02-23T17:50:24;7.27;;;4.37;;
12222;SDS011;6174;49.058;8.524;2023-02-23T17:52:52;5.17;;;4.43;;
12222;SDS011;6174;49.058;8.524;2023-02-23T17:55:22;6.37;;;4.53;;
12222;SDS011;6174;49.058;8.524;2023-02-23T17:57:51;8.70;;;4.93;;
12222;SDS011;6174;49.058;8.524;2023-02-23T18:00:18;5.43;;;4.70;;
12222;SDS011;6174;49.058;8.524;2023-02-23T18:02:45;6.27;;;4.37;;
12222;SDS011;6174;49.058;8.524;2023-02-23T18:05:12;6.37;;;4.80;;
12222;SDS011;6174;49.058;8.524;2023-02-23T18:07:40;6.73;;;4.80;;
12222;SDS011;6174;49.058;8.524;2023-02-23T18:10:07;6.40;;;4.97;;
12222;SDS011;6174;49.058;8.524;2023-02-23T18:12:35;6.93;;;5.10;;
12222;SDS011;6174;49.058;8.524;2023-02-23T18:15:03;6.53;;;5.40;;
12222;SDS011;6174;49.058;8.524;2023-02-23T18:17:31;7.83;;;6.80;;
12222;SDS011;6174;49.058;8.524;2023-02-23T18:19:57;6.07;;;5.43;;
12222;SDS011;6174;49.058;8.524;2023-02-23T18:22:24;6.00;;;5.40;;
12222;SDS011;6174;49.058;8.524;2023-02-23T18:24:51;7.37;;;5.90;;
12222;SDS011;6174;49.058;8.524;2023-02-23T18:27:18;12.23;;;11.13;;
12222;SDS011;6174;49.058;8.524;2023-02-23T18:29:44;12.70;;;11.23;;
12222;SDS011;6174;49.058;8.524;2023-02-23T18:32:12;12.13;;;10.90;;
12222;SDS011;6174;49.058;8.524;2023-02-23T18:34:39;12.97;;;10.83;;
12222;SDS011;6174;49.058;8.524;2023-02-23T18:37:06;10.13;;;8.93;;
12222;SDS011;6174;49.058;8.524;2023-02-23T18:39:34;10.57;;;9.50;;
12222;SDS011;6174;49.058;8.524;2023-02-23T18:42:00;12.57;;;9.50;;
12222;SDS011;6174;49.058;8.524;2023-02-23T18:44:27;10.17;;;9.17;;
12222;SDS011;6174;49.058;8.524;2023-02-23T18:46:54;14.03;;;11.20;;
12222;SDS011;6174;49.058;8.524;2023-02-23T18:49:23;12.90;;;11.60;;
12222;SDS011;6174;49.058;8.524;2023-02-23T18:51:50;18.00;;;16.03;;
12222;SDS011;6174;49.058;8.524;2023-02-23T18:54:17;18.40;;;16.23;;
12222;SDS011;6174;49.058;8.524;2023-02-23T18:56:46;19.93;;;16.60;;
12222;SDS011;6174;49.058;8.524;2023-02-23T18:59:13;13.20;;;11.80;;
12222;SDS011;6174;49.058;8.524;2023-02-23T19:01:40;13.73;;;12.27;;
12222;SDS011;6174;49.058;8.524;2023-02-23T19:04:09;16.93;;;15.03;;
12222;SDS011;6174;49.058;8.524;2023-02-23T19:06:39;16.63;;;13.87;;
12222;SDS011;6174;49.058;8.524;2023-02-23T19:09:07;12.17;;;10.83;;
12222;SDS011;6174;49.058;8.524;2023-02-23T19:11:37;13.60;;;11.93;;
12222;SDS011;6174;49.058;8.524;2023-02-23T19:14:06;13.90;;;12.10;;
12222;SDS011;6174;49.058;8.524;2023-02-23T19:16:37;17.03;;;15.23;;
12222;SDS011;6174;49.058;8.524;2023-02-23T19:19:05;18.07;;;15.93;;
12222;SDS011;6174;49.058;8.524;2023-02-23T19:21:33;18.67;;;15.60;;
12222;SDS011;6174;49.058;8.524;2023-02-23T19:24:02;15.17;;;13.07;;
12222;SDS011;6174;49.058;8.524;2023-02-23T19:26:30;13.90;;;12.10;;
12222;SDS011;6174;49.058;8.524;2023-02-23T19:28:57;13.67;;;12.17;;
12222;SDS011;6174;49.058;8.524;2023-02-23T19:31:25;14.93;;;12.37;;
12222;SDS011;6174;49.058;8.524;2023-02-23T19:33:53;14.03;;;12.53;;
12222;SDS011;6174;49.058;8.524;2023-02-23T19:36:21;14.87;;;13.37;;
12222;SDS011;6174;49.058;8.524;2023-02-23T19:38:54;16.67;;;13.77;;
12222;SDS011;6174;49.058;8.524;2023-02-23T19:41:31;16.13;;;12.83;;
12222;SDS011;6174;49.058;8.524;2023-02-23T19:43:59;14.00;;;11.63;;
12222;SDS011;6174;49.058;8.524;2023-02-23T19:46:26;13.40;;;11.87;;
12222;SDS011;6174;49.058;8.524;2023-02-23T19:48:53;14.47;;;12.13;;
12222;SDS011;6174;49.058;8.524;2023-02-23T19:51:20;16.30;;;12.77;;
12222;SDS011;6174;49.058;8.524;2023-02-23T19:53:47;12.60;;;11.30;;
12222;SDS011;6174;49.058;8.524;2023-02-23T19:56:14;13.40;;;11.47;;
12222;SDS011;6174;49.058;8.524;2023-02-23T19:58:43;13.43;;;11.67;;
12222;SDS011;6174;49.058;8.524;2023-02-23T20:01:11;12.50;;;11.20;;
12222;SDS011;6174;49.058;8.524;2023-02-23T20:03:41;10.77;;;8.93;;
12222;SDS011;6174;49.058;8.524;2023-02-23T20:06:09;10.67;;;8.97;;
12222;SDS011;6174;49.058;8.524;2023-02-23T20:08:37;11.23;;;9.27;;